This is the latest recevied weather packets stored in our database for station/object DB7GV-8. If no packets are shown the sender has not sent any weather packets the latest 10 day(s).
| Time | Temp. | Humidity | Pressure | Rain* | Wind** | Luminosity | Snow |
|---|---|---|---|---|---|---|---|
| 1777742996 | 21.11° C | 45% | 1016.9 hPa | - | - | - | - |
| 1777742091 | 22.22° C | 42% | 1016.9 hPa | - | - | - | - |
| 1777741186 | 24.44° C | 37% | 1017 hPa | - | - | - | - |
| 1777740280 | 26.11° C | 33% | 1017.1 hPa | - | - | - | - |
| 1777739374 | 26.67° C | 30% | 1017.2 hPa | - | - | - | - |
| 1777738469 | 27.22° C | 26% | 1017.4 hPa | - | - | - | - |
| 1777737564 | 27.78° C | 25% | 1017.6 hPa | - | - | - | - |
| 1777736659 | 27.22° C | 26% | 1017.7 hPa | - | - | - | - |
| 1777735753 | 27.22° C | 26% | 1017.9 hPa | - | - | - | - |
| 1777734848 | 27.78° C | 26% | 1018.1 hPa | - | - | - | - |
| 1777733942 | 27.78° C | 25% | 1018.2 hPa | - | - | - | - |
| 1777733036 | 28.33° C | 26% | 1018.5 hPa | - | - | - | - |
| 1777732131 | 28.33° C | 25% | 1018.7 hPa | - | - | - | - |
| 1777731226 | 28.33° C | 25% | 1018.9 hPa | - | - | - | - |
| 1777730320 | 28.33° C | 25% | 1019.2 hPa | - | - | - | - |
| 1777729415 | 27.78° C | 25% | 1019.3 hPa | - | - | - | - |
| 1777728510 | 28.33° C | 24% | 1019.6 hPa | - | - | - | - |
| 1777727604 | 28.33° C | 23% | 1019.8 hPa | - | - | - | - |
| 1777726698 | 27.78° C | 23% | 1020 hPa | - | - | - | - |
| 1777725793 | 27.78° C | 23% | 1020.1 hPa | - | - | - | - |
| 1777724888 | 27.78° C | 23% | 1020.3 hPa | - | - | - | - |
| 1777723982 | 27.78° C | 23% | 1020.5 hPa | - | - | - | - |
| 1777723077 | 27.78° C | 23% | 1020.8 hPa | - | - | - | - |
| 1777722172 | 27.22° C | 25% | 1021 hPa | - | - | - | - |
| 1777721266 | 27.78° C | 26% | 1021.2 hPa | - | - | - | - |
* Rain since midnight (hover to see other rain measurements)
** Current wind speed in m/s (hover to see current wind gust speed)